createdAt,value
2022-08-25T00:01:55.789Z,29.25
2022-08-25T00:04:23.497Z,29.52
2022-08-25T00:06:50.961Z,29.68
2022-08-25T00:09:20.434Z,29.60
2022-08-25T00:11:49.309Z,29.46
2022-08-25T00:14:26.417Z,29.65
2022-08-25T00:16:53.337Z,29.81
2022-08-25T00:19:26.573Z,29.82
2022-08-25T00:21:53.287Z,29.95
2022-08-25T00:24:21.057Z,30.16
2022-08-25T00:26:51.487Z,30.10
2022-08-25T00:29:18.750Z,30.38
2022-08-25T00:31:45.566Z,30.33
2022-08-25T00:34:19.222Z,30.17
2022-08-25T00:36:47.189Z,30.43
2022-08-25T00:39:14.301Z,30.59
2022-08-25T00:41:43.602Z,30.88
2022-08-25T00:44:13.299Z,30.50
2022-08-25T00:46:44.164Z,30.76
2022-08-25T00:49:24.919Z,30.82
2022-08-25T00:52:13.189Z,30.63
2022-08-25T00:54:45.708Z,31.02
2022-08-25T00:57:16.694Z,30.80
2022-08-25T00:59:44.435Z,31.37
2022-08-25T01:02:13.639Z,31.23
2022-08-25T01:04:48.673Z,31.60
2022-08-25T01:07:18.603Z,31.31
2022-08-25T01:09:47.733Z,31.58
2022-08-25T01:12:14.223Z,31.73
2022-08-25T01:14:41.168Z,31.72
2022-08-25T01:17:07.678Z,31.85
2022-08-25T01:19:34.134Z,32.15
2022-08-25T01:22:00.949Z,32.24
2022-08-25T01:24:38.870Z,32.15
2022-08-25T01:27:07.129Z,32.34
2022-08-25T01:29:34.259Z,32.41
2022-08-25T01:32:05.294Z,32.29
2022-08-25T01:34:35.169Z,32.79
2022-08-25T01:37:02.234Z,33.23
2022-08-25T01:39:31.425Z,33.18
2022-08-25T01:42:04.668Z,32.84
2022-08-25T01:44:31.934Z,33.24
2022-08-25T01:46:58.409Z,33.50
2022-08-25T01:49:25.116Z,33.67
2022-08-25T01:51:56.618Z,33.50
2022-08-25T01:54:23.713Z,33.88
2022-08-25T01:56:50.186Z,33.80
2022-08-25T01:59:24.370Z,33.69
2022-08-25T02:01:57.502Z,34.02
2022-08-25T02:04:26.934Z,34.08
2022-08-25T02:06:53.450Z,33.90
2022-08-25T02:09:19.864Z,34.32
2022-08-25T02:11:47.871Z,34.25
2022-08-25T02:14:15.658Z,34.26
2022-08-25T02:16:46.529Z,34.18
2022-08-25T02:19:13.046Z,34.25
2022-08-25T02:21:39.995Z,34.62
2022-08-25T02:24:07.622Z,34.28
2022-08-25T02:26:34.717Z,34.75
2022-08-25T02:29:01.250Z,34.77
2022-08-25T02:31:27.874Z,34.92
2022-08-25T02:33:55.147Z,34.69
2022-08-25T02:36:23.232Z,34.61
2022-08-25T02:38:50.862Z,35.21
2022-08-25T02:41:21.486Z,35.20
2022-08-25T02:43:48.750Z,34.98
2022-08-25T02:46:17.544Z,35.25
2022-08-25T02:48:44.528Z,35.15
2022-08-25T02:51:12.299Z,35.39
2022-08-25T02:53:40.506Z,35.16
2022-08-25T02:56:11.073Z,35.59
2022-08-25T02:58:38.685Z,35.44
2022-08-25T03:01:06.835Z,35.72
2022-08-25T03:03:38.820Z,35.55
2022-08-25T03:06:08.546Z,35.78
2022-08-25T03:08:36.258Z,35.82
2022-08-25T03:11:03.822Z,35.64
2022-08-25T03:13:30.337Z,35.62
2022-08-25T03:15:56.780Z,35.97
2022-08-25T03:18:23.211Z,35.89
2022-08-25T03:20:51.131Z,36.03
2022-08-25T03:23:17.928Z,35.73
2022-08-25T03:26:02.955Z,35.77
2022-08-25T03:28:33.077Z,35.74
2022-08-25T03:31:03.207Z,36.08
2022-08-25T03:33:30.658Z,36.03
2022-08-25T03:35:58.227Z,36.43
2022-08-25T03:38:25.522Z,36.36
2022-08-25T03:40:53.316Z,36.55
2022-08-25T03:43:20.578Z,36.70
2022-08-25T03:45:48.105Z,36.91
2022-08-25T03:48:16.141Z,36.60
2022-08-25T03:50:52.261Z,36.41
2022-08-25T03:53:20.059Z,36.79
2022-08-25T03:55:47.437Z,36.67
2022-08-25T03:58:14.018Z,36.93
2022-08-25T04:00:40.869Z,37.06
2022-08-25T04:03:07.742Z,37.03
2022-08-25T04:05:34.229Z,37.28
2022-08-25T04:08:01.899Z,37.57
2022-08-25T04:10:28.982Z,37.71
2022-08-25T04:12:56.183Z,37.42
2022-08-25T04:15:24.021Z,38.01
2022-08-25T04:17:55.312Z,38.20
2022-08-25T04:20:21.950Z,38.30
2022-08-25T04:22:48.498Z,38.48
2022-08-25T04:25:15.017Z,38.53
2022-08-25T04:27:41.862Z,38.48
2022-08-25T04:30:09.022Z,38.70
2022-08-25T04:32:36.899Z,38.82
2022-08-25T04:35:05.296Z,39.13
2022-08-25T04:37:31.817Z,39.31
2022-08-25T04:39:58.311Z,39.24
2022-08-25T04:42:26.364Z,39.57
2022-08-25T04:44:54.383Z,39.55
2022-08-25T04:47:28.320Z,38.99
2022-08-25T04:49:57.127Z,39.64
2022-08-25T04:52:29.517Z,39.19
2022-08-25T04:54:56.710Z,39.48
2022-08-25T04:57:23.261Z,39.63
2022-08-25T04:59:49.892Z,39.84
2022-08-25T05:02:16.321Z,39.51
2022-08-25T05:04:42.904Z,39.38
2022-08-25T05:07:09.371Z,39.69
2022-08-25T05:09:36.478Z,39.67
2022-08-25T05:12:04.608Z,39.90
2022-08-25T05:14:32.375Z,39.98
2022-08-25T05:16:59.445Z,39.68
2022-08-25T05:19:26.785Z,39.68
2022-08-25T05:21:54.086Z,40.05
2022-08-25T05:24:22.107Z,40.23
2022-08-25T05:26:48.594Z,39.96
2022-08-25T05:29:15.694Z,40.30
2022-08-25T05:31:48.238Z,40.58
2022-08-25T05:34:15.006Z,40.12
2022-08-25T05:36:43.528Z,40.19
2022-08-25T05:39:10.996Z,40.67
2022-08-25T05:41:37.685Z,40.36
2022-08-25T05:44:04.375Z,40.52
2022-08-25T05:46:31.829Z,40.51
2022-08-25T05:48:58.997Z,40.38
2022-08-25T05:51:26.303Z,40.55
2022-08-25T05:53:53.002Z,40.53
2022-08-25T05:56:20.063Z,40.48
2022-08-25T05:58:47.020Z,40.47
2022-08-25T06:01:45.104Z,40.48
2022-08-25T06:04:12.427Z,40.62
2022-08-25T06:06:39.738Z,40.80
2022-08-25T06:09:10.227Z,40.46
2022-08-25T06:11:39.998Z,40.51
2022-08-25T06:14:12.492Z,40.33
2022-08-25T06:16:40.337Z,40.65
2022-08-25T06:19:09.147Z,40.81
2022-08-25T06:21:37.352Z,41.08
2022-08-25T06:24:04.114Z,40.79
2022-08-25T06:26:30.692Z,41.21
2022-08-25T06:28:57.338Z,40.91
2022-08-25T06:31:23.932Z,40.77
2022-08-25T06:33:51.595Z,41.10
2022-08-25T06:36:19.226Z,40.64
2022-08-25T06:38:46.452Z,41.01
2022-08-25T06:41:13.025Z,41.05
2022-08-25T06:43:48.116Z,40.72
2022-08-25T06:46:17.887Z,39.41
2022-08-25T06:48:44.472Z,40.74
2022-08-25T06:51:14.080Z,41.08
2022-08-25T06:53:41.583Z,41.10
2022-08-25T06:56:08.688Z,41.21
2022-08-25T06:58:35.910Z,41.18
2022-08-25T07:01:27.009Z,40.73
2022-08-25T07:03:57.619Z,40.48
2022-08-25T07:06:25.756Z,40.17
2022-08-25T07:08:52.322Z,40.18
2022-08-25T07:11:21.414Z,40.09
2022-08-25T07:13:48.783Z,39.77
2022-08-25T07:16:16.014Z,39.64
2022-08-25T07:18:44.180Z,39.77
2022-08-25T07:21:12.376Z,39.64
2022-08-25T07:23:40.148Z,39.83
2022-08-25T07:26:37.436Z,39.81
2022-08-25T07:29:09.645Z,39.73
2022-08-25T07:31:36.337Z,39.21
2022-08-25T07:34:23.273Z,39.35
2022-08-25T07:36:49.717Z,39.12
2022-08-25T07:39:17.590Z,39.10
2022-08-25T07:41:48.842Z,39.00
2022-08-25T07:44:19.460Z,38.85
2022-08-25T07:46:45.977Z,38.76
2022-08-25T07:49:12.758Z,38.49
2022-08-25T07:51:55.219Z,38.33
2022-08-25T07:54:33.903Z,38.20
2022-08-25T07:57:01.455Z,37.98
2022-08-25T07:59:28.063Z,37.96
2022-08-25T08:01:54.591Z,37.70
2022-08-25T08:04:21.096Z,37.65
2022-08-25T08:06:47.605Z,37.45
2022-08-25T08:09:14.136Z,37.11
2022-08-25T08:11:53.752Z,37.17
2022-08-25T08:14:21.307Z,37.39
2022-08-25T08:16:48.063Z,37.13
2022-08-25T08:19:15.006Z,37.07
2022-08-25T08:21:41.925Z,36.83
2022-08-25T08:24:19.777Z,36.75
2022-08-25T08:26:58.958Z,36.76
2022-08-25T08:29:26.341Z,37.14
2022-08-25T08:31:53.397Z,36.75
2022-08-25T08:34:20.189Z,36.57
2022-08-25T08:36:51.686Z,36.42
2022-08-25T08:39:18.407Z,36.19
2022-08-25T08:42:18.132Z,36.04
2022-08-25T08:44:44.673Z,36.28
2022-08-25T08:47:27.299Z,36.38
2022-08-25T08:50:06.298Z,35.84
2022-08-25T08:52:54.642Z,35.57
2022-08-25T08:55:30.304Z,35.55
2022-08-25T08:57:59.724Z,35.23
2022-08-25T09:00:27.890Z,35.43
2022-08-25T09:02:58.678Z,35.18
2022-08-25T09:05:28.730Z,35.69
2022-08-25T09:08:11.796Z,35.12
2022-08-25T09:11:10.930Z,34.89
2022-08-25T09:14:01.903Z,34.90
2022-08-25T09:17:02.965Z,34.69
2022-08-25T09:19:49.515Z,34.49
2022-08-25T09:22:35.256Z,34.97
2022-08-25T09:28:24.040Z,34.53
2022-08-25T09:30:59.484Z,34.08
2022-08-25T09:33:27.886Z,34.18
2022-08-25T09:35:57.539Z,34.05
2022-08-25T09:38:26.273Z,33.77
2022-08-25T09:40:57.958Z,34.20
2022-08-25T09:43:32.210Z,34.06
2022-08-25T09:46:27.809Z,33.62
2022-08-25T09:48:57.831Z,33.32
2022-08-25T09:51:38.333Z,33.63
2022-08-25T09:54:12.575Z,32.92
2022-08-25T09:57:05.549Z,33.12
2022-08-25T09:59:37.179Z,32.71
2022-08-25T10:02:22.055Z,32.23
2022-08-25T10:04:48.540Z,32.49
2022-08-25T10:07:51.924Z,32.79
2022-08-25T10:10:28.147Z,32.37
2022-08-25T10:13:01.250Z,32.08
2022-08-25T10:15:36.039Z,32.32
2022-08-25T10:18:21.194Z,32.52
2022-08-25T10:21:07.533Z,32.49
2022-08-25T10:23:38.687Z,32.08
2022-08-25T10:26:14.443Z,31.89
2022-08-25T10:28:54.028Z,31.97
2022-08-25T10:31:46.451Z,31.84
2022-08-25T10:34:20.533Z,31.99
2022-08-25T10:37:03.253Z,31.39
2022-08-25T10:39:36.691Z,31.65
2022-08-25T10:42:39.737Z,31.96
2022-08-25T10:45:43.261Z,31.81
2022-08-25T10:48:34.664Z,31.51
2022-08-25T10:51:25.395Z,31.74
2022-08-25T10:54:06.218Z,31.40
2022-08-25T10:56:42.011Z,31.25
2022-08-25T10:59:19.274Z,31.17
2022-08-25T11:02:16.524Z,31.04
2022-08-25T11:04:59.756Z,30.71
2022-08-25T11:07:34.697Z,30.47
2022-08-25T11:10:09.839Z,30.54
2022-08-25T11:12:47.025Z,30.87
2022-08-25T11:15:21.010Z,30.65
2022-08-25T11:18:04.612Z,30.50
2022-08-25T11:20:51.922Z,29.97
2022-08-25T11:23:35.330Z,30.13
2022-08-25T11:26:13.550Z,30.07
2022-08-25T11:28:59.162Z,30.21
2022-08-25T11:31:27.723Z,29.90
2022-08-25T11:33:56.506Z,29.78
2022-08-25T11:36:35.756Z,29.64
2022-08-25T11:39:34.397Z,29.51
2022-08-25T11:42:20.881Z,29.78
2022-08-25T11:45:07.699Z,30.32
2022-08-25T11:47:48.038Z,29.98
2022-08-25T11:50:25.889Z,29.59
2022-08-25T11:53:18.676Z,29.97
2022-08-25T11:55:56.872Z,29.43
2022-08-25T11:58:46.618Z,29.71
2022-08-25T12:01:32.457Z,29.54
2022-08-25T12:04:44.932Z,29.60
2022-08-25T12:07:22.172Z,29.26
2022-08-25T12:09:51.685Z,28.86
2022-08-25T12:12:46.738Z,29.01
2022-08-25T12:15:31.741Z,28.85
2022-08-25T12:18:14.062Z,28.82
2022-08-25T12:20:54.231Z,28.71
2022-08-25T12:23:44.955Z,28.50
2022-08-25T12:26:32.935Z,28.72
2022-08-25T12:29:14.865Z,28.34
2022-08-25T12:32:04.915Z,28.07
2022-08-25T12:34:54.180Z,28.37
2022-08-25T12:37:23.612Z,28.25
2022-08-25T12:39:50.114Z,28.19
2022-08-25T12:42:35.409Z,28.00
2022-08-25T12:45:10.312Z,28.11
2022-08-25T12:47:37.776Z,27.44
2022-08-25T12:50:46.229Z,27.94
2022-08-25T12:53:33.960Z,27.37
2022-08-25T12:56:05.110Z,27.42
2022-08-25T12:59:00.238Z,27.61
2022-08-25T13:02:03.183Z,27.24
2022-08-25T13:05:11.525Z,27.28
2022-08-25T13:07:58.433Z,26.52
2022-08-25T13:11:09.495Z,27.10
2022-08-25T13:14:00.389Z,26.85
2022-08-25T13:16:30.097Z,26.46
2022-08-25T13:18:59.419Z,25.82
2022-08-25T13:21:42.498Z,26.12
2022-08-25T13:24:14.569Z,26.34
2022-08-25T13:26:48.343Z,26.31
2022-08-25T13:29:20.443Z,26.21
2022-08-25T13:32:09.618Z,26.05
2022-08-25T13:34:42.916Z,25.60
2022-08-25T13:37:30.589Z,25.44
2022-08-25T13:40:11.949Z,25.79
2022-08-25T13:42:49.008Z,26.14
2022-08-25T13:45:24.885Z,25.66
2022-08-25T13:47:56.128Z,25.80
2022-08-25T13:50:26.346Z,25.72
2022-08-25T13:52:56.334Z,25.49
2022-08-25T13:55:50.800Z,25.41
2022-08-25T13:58:39.458Z,26.11
2022-08-25T14:01:48.312Z,25.81
2022-08-25T14:04:23.040Z,25.86
2022-08-25T14:07:07.383Z,26.01
2022-08-25T14:09:45.451Z,25.24
2022-08-25T14:15:16.734Z,25.43
2022-08-25T14:17:48.814Z,25.55
2022-08-25T14:20:27.114Z,25.70
2022-08-25T14:22:58.119Z,25.10
2022-08-25T14:25:26.770Z,25.11
2022-08-25T14:28:06.915Z,24.93
2022-08-25T14:30:36.297Z,25.08
2022-08-25T14:33:04.042Z,24.75
2022-08-25T14:35:31.425Z,24.30
2022-08-25T14:37:58.195Z,24.29
2022-08-25T14:40:24.835Z,24.17
2022-08-25T14:42:51.479Z,24.19
2022-08-25T14:45:19.524Z,24.47
2022-08-25T14:47:49.662Z,24.32
2022-08-25T14:50:20.158Z,24.33
2022-08-25T14:52:48.287Z,24.31
2022-08-25T14:55:30.785Z,24.41
2022-08-25T14:57:58.650Z,23.92
2022-08-25T15:00:26.042Z,24.19
2022-08-25T15:02:52.978Z,23.92
2022-08-25T15:05:24.665Z,23.60
2022-08-25T15:08:12.148Z,23.69
2022-08-25T15:10:39.671Z,23.64
2022-08-25T15:13:07.255Z,23.95
2022-08-25T15:15:38.611Z,23.79
2022-08-25T15:18:18.870Z,24.18
2022-08-25T15:20:46.750Z,24.30
2022-08-25T15:23:16.521Z,24.12
2022-08-25T15:25:45.343Z,23.93
2022-08-25T15:28:12.778Z,24.44
2022-08-25T15:30:45.649Z,24.26
2022-08-25T15:33:13.041Z,24.31
2022-08-25T15:35:40.332Z,24.25
2022-08-25T15:38:08.209Z,24.31
2022-08-25T15:40:37.502Z,24.94
2022-08-25T15:43:04.882Z,24.98
2022-08-25T15:45:32.072Z,24.49
2022-08-25T15:47:59.468Z,24.49
2022-08-25T15:50:26.864Z,24.14
2022-08-25T15:52:53.317Z,24.13
2022-08-25T15:55:20.127Z,24.05
2022-08-25T15:57:47.893Z,24.06
2022-08-25T16:00:18.019Z,24.30
2022-08-25T16:02:50.593Z,23.79
2022-08-25T16:05:20.431Z,24.14
2022-08-25T16:07:52.342Z,23.60
2022-08-25T16:10:19.293Z,23.88
2022-08-25T16:12:46.719Z,23.54
2022-08-25T16:15:13.513Z,23.47
2022-08-25T16:17:40.695Z,23.75
2022-08-25T16:20:13.873Z,23.54
2022-08-25T16:22:40.997Z,23.32
2022-08-25T16:25:07.934Z,23.01
2022-08-25T16:27:38.850Z,22.90
2022-08-25T16:30:16.806Z,23.02
2022-08-25T16:32:44.878Z,22.78
2022-08-25T16:35:13.030Z,22.69
2022-08-25T16:37:40.611Z,22.86
2022-08-25T16:40:13.294Z,22.22
2022-08-25T16:42:41.294Z,22.37
2022-08-25T16:45:07.992Z,22.45
2022-08-25T16:47:37.800Z,21.97
2022-08-25T16:50:06.194Z,21.86
2022-08-25T16:52:51.911Z,22.00
2022-08-25T16:55:18.405Z,23.03
2022-08-25T16:57:53.811Z,21.96
2022-08-25T17:00:24.834Z,22.21
2022-08-25T17:02:59.259Z,21.58
2022-08-25T17:05:29.892Z,21.90
2022-08-25T17:08:17.580Z,21.76
2022-08-25T17:10:44.239Z,21.54
2022-08-25T17:13:11.427Z,21.49
2022-08-25T17:15:44.400Z,21.06
2022-08-25T17:18:11.511Z,21.35
2022-08-25T17:20:40.343Z,20.95
2022-08-25T17:23:12.146Z,21.09
2022-08-25T17:25:41.284Z,21.02
2022-08-25T17:28:09.457Z,20.75
2022-08-25T17:30:39.278Z,20.45
2022-08-25T17:33:05.730Z,21.00
2022-08-25T17:35:32.210Z,20.81
2022-08-25T17:37:58.645Z,20.65
2022-08-25T17:40:26.566Z,20.91
2022-08-25T17:42:53.505Z,20.81
2022-08-25T17:45:20.135Z,20.71
2022-08-25T17:47:46.548Z,20.89
2022-08-25T17:50:15.364Z,20.76
2022-08-25T17:52:43.424Z,21.19
2022-08-25T17:55:10.918Z,21.38
2022-08-25T17:57:38.867Z,21.27
2022-08-25T18:00:11.829Z,21.41
2022-08-25T18:02:39.838Z,21.28
2022-08-25T18:05:07.069Z,22.02
2022-08-25T18:07:33.730Z,22.29
2022-08-25T18:10:00.452Z,22.15
2022-08-25T18:12:27.396Z,22.15
2022-08-25T18:14:54.196Z,22.90
2022-08-25T18:17:21.858Z,22.86
2022-08-25T18:19:49.486Z,23.62
2022-08-25T18:22:16.701Z,23.76
2022-08-25T18:24:44.401Z,23.90
2022-08-25T18:27:11.402Z,24.25
2022-08-25T18:29:37.947Z,24.91
2022-08-25T18:32:07.259Z,24.60
2022-08-25T18:34:33.965Z,25.38
2022-08-25T18:37:22.994Z,25.39
2022-08-25T18:40:09.389Z,25.83
2022-08-25T18:42:36.394Z,25.96
2022-08-25T18:45:05.958Z,26.04
2022-08-25T18:47:33.307Z,26.51
2022-08-25T18:50:04.503Z,26.56
2022-08-25T18:52:31.375Z,26.55
2022-08-25T18:54:59.347Z,27.06
2022-08-25T18:57:27.494Z,27.31
2022-08-25T18:59:55.387Z,27.06
2022-08-25T19:02:22.218Z,27.64
2022-08-25T19:04:52.590Z,27.74
2022-08-25T19:07:19.598Z,28.21
2022-08-25T19:09:46.141Z,27.95
2022-08-25T19:12:14.575Z,28.44
2022-08-25T19:14:49.366Z,28.22
2022-08-25T19:17:16.522Z,28.62
2022-08-25T19:19:43.179Z,28.57
2022-08-25T19:22:31.759Z,28.66
2022-08-25T19:24:57.764Z,29.08
2022-08-25T19:27:24.973Z,28.98
2022-08-25T19:29:51.638Z,29.15
2022-08-25T19:32:18.186Z,29.47
2022-08-25T19:34:47.312Z,29.59
2022-08-25T19:37:18.101Z,29.76
2022-08-25T19:39:52.636Z,29.98
2022-08-25T19:42:35.284Z,29.69
2022-08-25T19:45:08.660Z,29.57
2022-08-25T19:47:35.164Z,29.99
2022-08-25T19:50:01.617Z,30.19
2022-08-25T19:52:28.810Z,30.59
2022-08-25T19:54:55.406Z,30.47
2022-08-25T19:57:28.545Z,30.47
2022-08-25T20:00:22.914Z,30.48
2022-08-25T20:02:50.925Z,30.48
2022-08-25T20:05:23.837Z,31.01
2022-08-25T20:07:53.114Z,30.81
2022-08-25T20:10:20.674Z,30.99
2022-08-25T20:12:47.403Z,31.42
2022-08-25T20:15:16.642Z,31.31
2022-08-25T20:17:45.092Z,31.65
2022-08-25T20:20:15.273Z,31.34
2022-08-25T20:22:42.529Z,31.86
2022-08-25T20:25:17.622Z,32.13
2022-08-25T20:27:48.836Z,32.25
2022-08-25T20:30:24.424Z,32.02
2022-08-25T20:32:52.658Z,32.32
2022-08-25T20:35:19.371Z,32.61
2022-08-25T20:37:47.566Z,32.45
2022-08-25T20:40:17.041Z,32.88
2022-08-25T20:42:44.384Z,32.58
2022-08-25T20:45:14.137Z,32.76
2022-08-25T20:47:41.115Z,33.10
2022-08-25T20:50:09.144Z,32.77
2022-08-25T20:52:37.354Z,33.14
2022-08-25T20:55:09.202Z,33.17
2022-08-25T20:57:35.907Z,33.29
2022-08-25T21:00:03.104Z,33.21
2022-08-25T21:02:31.088Z,33.09
2022-08-25T21:04:57.801Z,33.62
2022-08-25T21:07:25.500Z,33.63
2022-08-25T21:09:52.193Z,33.91
2022-08-25T21:12:18.843Z,33.90
2022-08-25T21:14:45.505Z,34.05
2022-08-25T21:17:14.345Z,34.01
2022-08-25T21:19:41.949Z,34.20
2022-08-25T21:22:09.406Z,34.29
2022-08-25T21:24:37.643Z,34.35
2022-08-25T21:27:04.557Z,34.35
2022-08-25T21:29:32.616Z,34.56
2022-08-25T21:31:59.163Z,34.63
2022-08-25T21:34:28.907Z,34.74
2022-08-25T21:36:57.864Z,34.74
2022-08-25T21:39:29.696Z,34.95
2022-08-25T21:41:59.976Z,34.92
2022-08-25T21:44:26.970Z,35.03
2022-08-25T21:46:54.282Z,35.02
2022-08-25T21:49:21.562Z,35.24
2022-08-25T21:51:50.950Z,35.23
2022-08-25T21:54:24.144Z,35.17
2022-08-25T21:56:53.505Z,35.51
2022-08-25T21:59:24.025Z,35.33
2022-08-25T22:02:23.249Z,35.22
2022-08-25T22:04:54.261Z,35.44
2022-08-25T22:07:22.510Z,35.79
2022-08-25T22:09:51.694Z,35.87
2022-08-25T22:12:19.342Z,36.13
2022-08-25T22:14:46.055Z,35.96
2022-08-25T22:17:16.850Z,36.30
2022-08-25T22:19:47.463Z,36.40
2022-08-25T22:22:15.805Z,36.41
2022-08-25T22:24:47.474Z,36.18
2022-08-25T22:27:15.779Z,36.15
2022-08-25T22:29:43.998Z,36.71
2022-08-25T22:32:10.718Z,36.45
2022-08-25T22:34:40.421Z,36.81
2022-08-25T22:37:06.951Z,36.52
2022-08-25T22:39:34.948Z,36.88
2022-08-25T22:42:02.917Z,36.91
2022-08-25T22:44:29.731Z,36.90
2022-08-25T22:46:56.406Z,37.10
2022-08-25T22:49:23.621Z,37.21
2022-08-25T22:51:50.081Z,37.27
2022-08-25T22:54:17.764Z,37.37
2022-08-25T22:56:44.527Z,37.41
2022-08-25T22:59:12.918Z,37.53
2022-08-25T23:01:41.027Z,37.77
2022-08-25T23:04:07.704Z,37.90
2022-08-25T23:06:34.761Z,37.63
2022-08-25T23:09:03.630Z,37.88
2022-08-25T23:11:30.174Z,38.21
2022-08-25T23:14:00.476Z,37.99
2022-08-25T23:16:28.406Z,38.30
2022-08-25T23:18:55.489Z,38.37
2022-08-25T23:21:41.096Z,38.33
2022-08-25T23:24:13.473Z,38.47
2022-08-25T23:26:41.937Z,38.50
2022-08-25T23:29:18.594Z,38.20
2022-08-25T23:31:46.836Z,38.69
2022-08-25T23:34:16.084Z,38.87
2022-08-25T23:36:42.846Z,38.95
2022-08-25T23:39:10.736Z,38.86
2022-08-25T23:41:37.344Z,39.08
2022-08-25T23:44:05.362Z,39.02
2022-08-25T23:46:34.880Z,39.01
2022-08-25T23:49:03.959Z,38.97
2022-08-25T23:51:33.532Z,39.15
2022-08-25T23:54:05.796Z,39.52
2022-08-25T23:56:34.380Z,39.42
2022-08-25T23:59:02.291Z,39.43
